sensor_id;sensor_type;location;lat;lon;timestamp;P1;durP1;ratioP1;P2;durP2;ratioP2
36573;SDS011;22578;42.668;23.232;2023-11-21T00:00:25;1.95;;;1.85;;
36573;SDS011;22578;42.668;23.232;2023-11-21T00:03:46;1.90;;;1.80;;
36573;SDS011;22578;42.668;23.232;2023-11-21T00:07:06;2.35;;;2.15;;
36573;SDS011;22578;42.668;23.232;2023-11-21T00:10:27;1.50;;;1.50;;
36573;SDS011;22578;42.668;23.232;2023-11-21T00:13:48;3.42;;;1.88;;
36573;SDS011;22578;42.668;23.232;2023-11-21T00:17:09;1.30;;;1.30;;
36573;SDS011;22578;42.668;23.232;2023-11-21T00:20:29;1.75;;;1.65;;
36573;SDS011;22578;42.668;23.232;2023-11-21T00:23:50;1.88;;;1.80;;
36573;SDS011;22578;42.668;23.232;2023-11-21T00:27:10;2.65;;;2.20;;
36573;SDS011;22578;42.668;23.232;2023-11-21T00:30:31;1.48;;;1.42;;
36573;SDS011;22578;42.668;23.232;2023-11-21T00:33:52;1.65;;;1.55;;
36573;SDS011;22578;42.668;23.232;2023-11-21T00:37:12;1.85;;;1.75;;
36573;SDS011;22578;42.668;23.232;2023-11-21T00:40:33;1.20;;;1.20;;
36573;SDS011;22578;42.668;23.232;2023-11-21T00:43:53;1.38;;;1.38;;
36573;SDS011;22578;42.668;23.232;2023-11-21T00:47:15;1.65;;;1.55;;
36573;SDS011;22578;42.668;23.232;2023-11-21T00:50:35;2.08;;;1.98;;
36573;SDS011;22578;42.668;23.232;2023-11-21T00:53:56;1.83;;;1.73;;
36573;SDS011;22578;42.668;23.232;2023-11-21T00:57:16;2.50;;;2.30;;
36573;SDS011;22578;42.668;23.232;2023-11-21T01:00:37;1.75;;;1.65;;
36573;SDS011;22578;42.668;23.232;2023-11-21T01:03:59;1.70;;;1.60;;
36573;SDS011;22578;42.668;23.232;2023-11-21T01:07:20;1.50;;;1.40;;
36573;SDS011;22578;42.668;23.232;2023-11-21T01:10:40;1.50;;;1.50;;
36573;SDS011;22578;42.668;23.232;2023-11-21T01:14:01;2.10;;;1.90;;
36573;SDS011;22578;42.668;23.232;2023-11-21T01:17:23;1.60;;;1.50;;
36573;SDS011;22578;42.668;23.232;2023-11-21T01:20:44;1.92;;;1.83;;
36573;SDS011;22578;42.668;23.232;2023-11-21T01:24:07;2.00;;;1.90;;
36573;SDS011;22578;42.668;23.232;2023-11-21T01:27:27;1.60;;;1.50;;
36573;SDS011;22578;42.668;23.232;2023-11-21T01:30:48;1.60;;;1.50;;
36573;SDS011;22578;42.668;23.232;2023-11-21T01:34:09;1.90;;;1.77;;
36573;SDS011;22578;42.668;23.232;2023-11-21T01:37:29;1.70;;;1.60;;
36573;SDS011;22578;42.668;23.232;2023-11-21T01:40:50;1.40;;;1.40;;
36573;SDS011;22578;42.668;23.232;2023-11-21T01:44:11;3.08;;;2.55;;
36573;SDS011;22578;42.668;23.232;2023-11-21T01:47:33;2.60;;;2.40;;
36573;SDS011;22578;42.668;23.232;2023-11-21T01:50:57;1.63;;;1.55;;
36573;SDS011;22578;42.668;23.232;2023-11-21T01:54:18;1.83;;;1.73;;
36573;SDS011;22578;42.668;23.232;2023-11-21T01:57:39;2.63;;;2.42;;
36573;SDS011;22578;42.668;23.232;2023-11-21T02:00:59;2.53;;;2.33;;
36573;SDS011;22578;42.668;23.232;2023-11-21T02:04:20;2.20;;;2.08;;
36573;SDS011;22578;42.668;23.232;2023-11-21T02:07:41;2.47;;;2.25;;
36573;SDS011;22578;42.668;23.232;2023-11-21T02:11:05;3.30;;;2.17;;
36573;SDS011;22578;42.668;23.232;2023-11-21T02:14:26;2.90;;;2.50;;
36573;SDS011;22578;42.668;23.232;2023-11-21T02:17:49;5.20;;;4.13;;
36573;SDS011;22578;42.668;23.232;2023-11-21T02:21:14;3.55;;;3.22;;
36573;SDS011;22578;42.668;23.232;2023-11-21T02:24:35;2.65;;;2.15;;
36573;SDS011;22578;42.668;23.232;2023-11-21T02:27:57;12.13;;;7.72;;
36573;SDS011;22578;42.668;23.232;2023-11-21T02:31:18;7.20;;;3.50;;
36573;SDS011;22578;42.668;23.232;2023-11-21T02:34:39;5.38;;;3.03;;
36573;SDS011;22578;42.668;23.232;2023-11-21T02:37:59;7.10;;;2.72;;
36573;SDS011;22578;42.668;23.232;2023-11-21T02:41:20;2.00;;;1.90;;
36573;SDS011;22578;42.668;23.232;2023-11-21T02:44:40;1.55;;;1.45;;
36573;SDS011;22578;42.668;23.232;2023-11-21T02:48:01;2.95;;;2.40;;
36573;SDS011;22578;42.668;23.232;2023-11-21T02:51:21;2.92;;;2.70;;
36573;SDS011;22578;42.668;23.232;2023-11-21T02:54:42;2.17;;;2.00;;
36573;SDS011;22578;42.668;23.232;2023-11-21T02:58:03;2.13;;;1.92;;
36573;SDS011;22578;42.668;23.232;2023-11-21T03:01:24;2.88;;;2.67;;
36573;SDS011;22578;42.668;23.232;2023-11-21T03:04:44;2.65;;;2.45;;
36573;SDS011;22578;42.668;23.232;2023-11-21T03:08:05;3.50;;;2.58;;
36573;SDS011;22578;42.668;23.232;2023-11-21T03:11:25;2.20;;;2.08;;
36573;SDS011;22578;42.668;23.232;2023-11-21T03:14:46;1.35;;;1.35;;
36573;SDS011;22578;42.668;23.232;2023-11-21T03:18:07;1.85;;;1.75;;
36573;SDS011;22578;42.668;23.232;2023-11-21T03:21:28;1.83;;;1.73;;
36573;SDS011;22578;42.668;23.232;2023-11-21T03:24:49;1.98;;;1.88;;
36573;SDS011;22578;42.668;23.232;2023-11-21T03:28:09;1.42;;;1.42;;
36573;SDS011;22578;42.668;23.232;2023-11-21T03:31:30;1.55;;;1.45;;
36573;SDS011;22578;42.668;23.232;2023-11-21T03:34:55;1.75;;;1.65;;
36573;SDS011;22578;42.668;23.232;2023-11-21T03:38:18;1.67;;;1.58;;
36573;SDS011;22578;42.668;23.232;2023-11-21T03:41:39;2.05;;;1.85;;
36573;SDS011;22578;42.668;23.232;2023-11-21T03:45:00;3.55;;;2.70;;
36573;SDS011;22578;42.668;23.232;2023-11-21T03:48:20;1.40;;;1.40;;
36573;SDS011;22578;42.668;23.232;2023-11-21T03:51:41;3.13;;;1.75;;
36573;SDS011;22578;42.668;23.232;2023-11-21T03:55:02;4.25;;;2.10;;
36573;SDS011;22578;42.668;23.232;2023-11-21T03:58:22;1.70;;;1.60;;
36573;SDS011;22578;42.668;23.232;2023-11-21T04:01:43;1.33;;;1.33;;
36573;SDS011;22578;42.668;23.232;2023-11-21T04:05:03;1.98;;;1.88;;
36573;SDS011;22578;42.668;23.232;2023-11-21T04:08:26;1.70;;;1.60;;
36573;SDS011;22578;42.668;23.232;2023-11-21T04:11:46;1.85;;;1.75;;
36573;SDS011;22578;42.668;23.232;2023-11-21T04:15:07;2.47;;;2.28;;
36573;SDS011;22578;42.668;23.232;2023-11-21T04:18:31;2.83;;;1.95;;
36573;SDS011;22578;42.668;23.232;2023-11-21T04:21:51;1.77;;;1.67;;
36573;SDS011;22578;42.668;23.232;2023-11-21T04:25:13;1.88;;;1.77;;
36573;SDS011;22578;42.668;23.232;2023-11-21T04:28:34;1.80;;;1.70;;
36573;SDS011;22578;42.668;23.232;2023-11-21T04:31:54;2.10;;;1.90;;
36573;SDS011;22578;42.668;23.232;2023-11-21T04:35:15;1.92;;;1.83;;
36573;SDS011;22578;42.668;23.232;2023-11-21T04:38:36;1.95;;;1.83;;
36573;SDS011;22578;42.668;23.232;2023-11-21T04:41:56;1.50;;;1.45;;
36573;SDS011;22578;42.668;23.232;2023-11-21T04:45:17;1.90;;;1.80;;
36573;SDS011;22578;42.668;23.232;2023-11-21T04:48:38;1.58;;;1.48;;
36573;SDS011;22578;42.668;23.232;2023-11-21T04:51:58;1.63;;;1.52;;
36573;SDS011;22578;42.668;23.232;2023-11-21T04:55:19;2.22;;;2.03;;
36573;SDS011;22578;42.668;23.232;2023-11-21T04:58:40;1.83;;;1.73;;
36573;SDS011;22578;42.668;23.232;2023-11-21T05:02:00;3.90;;;1.75;;
36573;SDS011;22578;42.668;23.232;2023-11-21T05:05:21;2.15;;;1.98;;
36573;SDS011;22578;42.668;23.232;2023-11-21T05:08:42;1.67;;;1.58;;
36573;SDS011;22578;42.668;23.232;2023-11-21T05:12:03;2.00;;;1.90;;
36573;SDS011;22578;42.668;23.232;2023-11-21T05:15:23;1.70;;;1.60;;
36573;SDS011;22578;42.668;23.232;2023-11-21T05:18:44;2.00;;;1.77;;
36573;SDS011;22578;42.668;23.232;2023-11-21T05:22:05;2.03;;;1.83;;
36573;SDS011;22578;42.668;23.232;2023-11-21T05:25:25;2.63;;;2.42;;
36573;SDS011;22578;42.668;23.232;2023-11-21T05:28:46;1.77;;;1.67;;
36573;SDS011;22578;42.668;23.232;2023-11-21T05:32:06;3.08;;;2.50;;
36573;SDS011;22578;42.668;23.232;2023-11-21T05:35:27;2.20;;;2.08;;
36573;SDS011;22578;42.668;23.232;2023-11-21T05:38:47;2.60;;;2.40;;
36573;SDS011;22578;42.668;23.232;2023-11-21T05:42:08;2.75;;;2.53;;
36573;SDS011;22578;42.668;23.232;2023-11-21T05:45:30;2.00;;;1.88;;
36573;SDS011;22578;42.668;23.232;2023-11-21T05:48:51;1.60;;;1.50;;
36573;SDS011;22578;42.668;23.232;2023-11-21T05:52:12;1.48;;;1.38;;
36573;SDS011;22578;42.668;23.232;2023-11-21T05:55:32;1.73;;;1.63;;
36573;SDS011;22578;42.668;23.232;2023-11-21T05:58:53;1.50;;;1.40;;
36573;SDS011;22578;42.668;23.232;2023-11-21T06:02:13;1.60;;;1.50;;
36573;SDS011;22578;42.668;23.232;2023-11-21T06:05:34;1.42;;;1.42;;
36573;SDS011;22578;42.668;23.232;2023-11-21T06:08:55;2.45;;;2.05;;
36573;SDS011;22578;42.668;23.232;2023-11-21T06:12:15;2.33;;;1.90;;
36573;SDS011;22578;42.668;23.232;2023-11-21T06:15:36;1.55;;;1.48;;
36573;SDS011;22578;42.668;23.232;2023-11-21T06:18:56;1.95;;;1.83;;
36573;SDS011;22578;42.668;23.232;2023-11-21T06:22:17;5.82;;;3.35;;
36573;SDS011;22578;42.668;23.232;2023-11-21T06:25:37;5.35;;;3.08;;
36573;SDS011;22578;42.668;23.232;2023-11-21T06:28:59;3.05;;;2.75;;
36573;SDS011;22578;42.668;23.232;2023-11-21T06:32:20;11.43;;;6.93;;
36573;SDS011;22578;42.668;23.232;2023-11-21T06:35:42;19.23;;;8.98;;
36573;SDS011;22578;42.668;23.232;2023-11-21T06:39:03;5.45;;;4.05;;
36573;SDS011;22578;42.668;23.232;2023-11-21T06:42:28;4.70;;;4.10;;
36573;SDS011;22578;42.668;23.232;2023-11-21T06:45:49;8.45;;;5.60;;
36573;SDS011;22578;42.668;23.232;2023-11-21T06:49:09;4.30;;;3.80;;
36573;SDS011;22578;42.668;23.232;2023-11-21T06:52:31;3.72;;;3.40;;
36573;SDS011;22578;42.668;23.232;2023-11-21T06:55:51;4.03;;;3.47;;
36573;SDS011;22578;42.668;23.232;2023-11-21T06:59:12;5.10;;;4.32;;
36573;SDS011;22578;42.668;23.232;2023-11-21T07:02:33;5.57;;;3.92;;
36573;SDS011;22578;42.668;23.232;2023-11-21T07:05:54;7.13;;;4.47;;
36573;SDS011;22578;42.668;23.232;2023-11-21T07:09:14;5.25;;;3.88;;
36573;SDS011;22578;42.668;23.232;2023-11-21T07:12:35;5.97;;;3.97;;
36573;SDS011;22578;42.668;23.232;2023-11-21T07:15:57;3.88;;;3.35;;
36573;SDS011;22578;42.668;23.232;2023-11-21T07:19:21;3.45;;;3.15;;
36573;SDS011;22578;42.668;23.232;2023-11-21T07:22:41;3.53;;;3.17;;
36573;SDS011;22578;42.668;23.232;2023-11-21T07:26:02;7.78;;;3.55;;
36573;SDS011;22578;42.668;23.232;2023-11-21T07:29:23;4.03;;;3.63;;
36573;SDS011;22578;42.668;23.232;2023-11-21T07:32:45;6.20;;;4.63;;
36573;SDS011;22578;42.668;23.232;2023-11-21T07:36:08;7.90;;;4.45;;
36573;SDS011;22578;42.668;23.232;2023-11-21T07:39:28;5.70;;;3.53;;
36573;SDS011;22578;42.668;23.232;2023-11-21T07:42:49;4.68;;;3.67;;
36573;SDS011;22578;42.668;23.232;2023-11-21T07:46:11;4.35;;;3.95;;
36573;SDS011;22578;42.668;23.232;2023-11-21T07:49:34;2.95;;;2.72;;
36573;SDS011;22578;42.668;23.232;2023-11-21T07:52:55;8.25;;;3.55;;
36573;SDS011;22578;42.668;23.232;2023-11-21T07:56:15;3.50;;;3.03;;
36573;SDS011;22578;42.668;23.232;2023-11-21T07:59:36;11.20;;;3.95;;
36573;SDS011;22578;42.668;23.232;2023-11-21T08:02:56;3.67;;;3.15;;
36573;SDS011;22578;42.668;23.232;2023-11-21T08:06:17;2.95;;;2.58;;
36573;SDS011;22578;42.668;23.232;2023-11-21T08:09:37;3.00;;;2.78;;
36573;SDS011;22578;42.668;23.232;2023-11-21T08:12:58;6.72;;;3.88;;
36573;SDS011;22578;42.668;23.232;2023-11-21T08:16:18;4.20;;;3.80;;
36573;SDS011;22578;42.668;23.232;2023-11-21T08:19:39;6.80;;;3.67;;
36573;SDS011;22578;42.668;23.232;2023-11-21T08:22:59;8.00;;;4.72;;
36573;SDS011;22578;42.668;23.232;2023-11-21T08:26:23;6.28;;;4.13;;
36573;SDS011;22578;42.668;23.232;2023-11-21T08:29:44;8.00;;;4.30;;
36573;SDS011;22578;42.668;23.232;2023-11-21T08:33:05;10.82;;;4.53;;
36573;SDS011;22578;42.668;23.232;2023-11-21T08:36:26;7.43;;;4.53;;
36573;SDS011;22578;42.668;23.232;2023-11-21T08:39:47;8.45;;;5.32;;
36573;SDS011;22578;42.668;23.232;2023-11-21T08:43:08;9.55;;;4.40;;
36573;SDS011;22578;42.668;23.232;2023-11-21T08:46:29;11.70;;;4.68;;
36573;SDS011;22578;42.668;23.232;2023-11-21T08:49:50;6.68;;;4.60;;
36573;SDS011;22578;42.668;23.232;2023-11-21T08:53:15;3.78;;;3.45;;
36573;SDS011;22578;42.668;23.232;2023-11-21T08:56:36;4.15;;;3.30;;
36573;SDS011;22578;42.668;23.232;2023-11-21T08:59:57;5.53;;;4.07;;
36573;SDS011;22578;42.668;23.232;2023-11-21T09:03:17;4.25;;;3.33;;
36573;SDS011;22578;42.668;23.232;2023-11-21T09:06:39;4.88;;;3.53;;
36573;SDS011;22578;42.668;23.232;2023-11-21T09:10:00;8.40;;;4.78;;
36573;SDS011;22578;42.668;23.232;2023-11-21T09:13:21;6.13;;;4.72;;
36573;SDS011;22578;42.668;23.232;2023-11-21T09:16:42;7.80;;;4.15;;
36573;SDS011;22578;42.668;23.232;2023-11-21T09:20:04;7.10;;;4.38;;
36573;SDS011;22578;42.668;23.232;2023-11-21T09:23:26;5.68;;;4.75;;
36573;SDS011;22578;42.668;23.232;2023-11-21T09:26:47;8.18;;;4.85;;
36573;SDS011;22578;42.668;23.232;2023-11-21T09:30:09;8.63;;;4.82;;
36573;SDS011;22578;42.668;23.232;2023-11-21T09:33:30;5.93;;;4.75;;
36573;SDS011;22578;42.668;23.232;2023-11-21T09:36:51;8.60;;;5.07;;
36573;SDS011;22578;42.668;23.232;2023-11-21T09:40:12;9.77;;;5.40;;
36573;SDS011;22578;42.668;23.232;2023-11-21T09:43:34;15.60;;;6.07;;
36573;SDS011;22578;42.668;23.232;2023-11-21T09:46:56;5.70;;;4.10;;
36573;SDS011;22578;42.668;23.232;2023-11-21T09:50:19;7.85;;;3.70;;
36573;SDS011;22578;42.668;23.232;2023-11-21T09:53:41;5.90;;;3.78;;
36573;SDS011;22578;42.668;23.232;2023-11-21T09:57:04;8.85;;;5.53;;
36573;SDS011;22578;42.668;23.232;2023-11-21T10:00:28;3.85;;;3.17;;
36573;SDS011;22578;42.668;23.232;2023-11-21T10:03:50;9.85;;;5.20;;
36573;SDS011;22578;42.668;23.232;2023-11-21T10:07:12;8.25;;;5.40;;
36573;SDS011;22578;42.668;23.232;2023-11-21T10:10:36;5.28;;;4.18;;
36573;SDS011;22578;42.668;23.232;2023-11-21T10:13:57;11.85;;;4.78;;
36573;SDS011;22578;42.668;23.232;2023-11-21T10:17:20;5.93;;;4.75;;
36573;SDS011;22578;42.668;23.232;2023-11-21T10:20:41;8.10;;;4.95;;
36573;SDS011;22578;42.668;23.232;2023-11-21T10:24:03;4.15;;;3.13;;
36573;SDS011;22578;42.668;23.232;2023-11-21T10:27:26;4.32;;;3.13;;
36573;SDS011;22578;42.668;23.232;2023-11-21T10:30:47;6.47;;;3.83;;
36573;SDS011;22578;42.668;23.232;2023-11-21T10:34:18;4.85;;;4.30;;
36573;SDS011;22578;42.668;23.232;2023-11-21T10:37:39;5.63;;;3.88;;
36573;SDS011;22578;42.668;23.232;2023-11-21T10:41:00;7.97;;;4.38;;
36573;SDS011;22578;42.668;23.232;2023-11-21T10:44:21;5.32;;;3.90;;
36573;SDS011;22578;42.668;23.232;2023-11-21T10:47:43;5.22;;;3.47;;
36573;SDS011;22578;42.668;23.232;2023-11-21T10:51:07;7.00;;;2.90;;
36573;SDS011;22578;42.668;23.232;2023-11-21T10:54:29;6.38;;;4.22;;
36573;SDS011;22578;42.668;23.232;2023-11-21T10:57:54;5.38;;;3.55;;
36573;SDS011;22578;42.668;23.232;2023-11-21T11:01:16;4.55;;;3.75;;
36573;SDS011;22578;42.668;23.232;2023-11-21T11:04:38;5.82;;;3.78;;
36573;SDS011;22578;42.668;23.232;2023-11-21T11:07:59;7.85;;;3.88;;
36573;SDS011;22578;42.668;23.232;2023-11-21T11:11:21;5.47;;;3.92;;
36573;SDS011;22578;42.668;23.232;2023-11-21T11:14:42;10.05;;;3.95;;
36573;SDS011;22578;42.668;23.232;2023-11-21T11:18:04;5.03;;;3.92;;
36573;SDS011;22578;42.668;23.232;2023-11-21T11:39:57;8.18;;;4.28;;
36573;SDS011;22578;42.668;23.232;2023-11-21T11:43:25;6.13;;;4.20;;
36573;SDS011;22578;42.668;23.232;2023-11-21T11:46:47;6.45;;;2.95;;
36573;SDS011;22578;42.668;23.232;2023-11-21T11:50:08;5.65;;;4.22;;
36573;SDS011;22578;42.668;23.232;2023-11-21T11:53:41;8.38;;;4.80;;
36573;SDS011;22578;42.668;23.232;2023-11-21T11:57:04;11.57;;;4.85;;
36573;SDS011;22578;42.668;23.232;2023-11-21T12:08:02;6.13;;;4.43;;
36573;SDS011;22578;42.668;23.232;2023-11-21T12:11:29;8.65;;;5.32;;
36573;SDS011;22578;42.668;23.232;2023-11-21T12:14:55;7.53;;;4.63;;
36573;SDS011;22578;42.668;23.232;2023-11-21T12:18:15;8.13;;;5.50;;
36573;SDS011;22578;42.668;23.232;2023-11-21T12:21:36;7.20;;;5.05;;
36573;SDS011;22578;42.668;23.232;2023-11-21T12:24:57;11.77;;;5.55;;
36573;SDS011;22578;42.668;23.232;2023-11-21T12:28:17;6.15;;;4.43;;
36573;SDS011;22578;42.668;23.232;2023-11-21T12:31:38;4.60;;;3.92;;
36573;SDS011;22578;42.668;23.232;2023-11-21T12:35:00;7.50;;;4.28;;
36573;SDS011;22578;42.668;23.232;2023-11-21T12:38:23;7.63;;;4.50;;
36573;SDS011;22578;42.668;23.232;2023-11-21T12:41:44;9.38;;;3.97;;
36573;SDS011;22578;42.668;23.232;2023-11-21T12:48:36;7.18;;;3.60;;
36573;SDS011;22578;42.668;23.232;2023-11-21T12:51:59;3.60;;;2.90;;
36573;SDS011;22578;42.668;23.232;2023-11-21T12:55:20;11.43;;;4.95;;
36573;SDS011;22578;42.668;23.232;2023-11-21T12:58:44;21.95;;;5.53;;
36573;SDS011;22578;42.668;23.232;2023-11-21T13:02:07;11.38;;;4.28;;
36573;SDS011;22578;42.668;23.232;2023-11-21T13:05:30;8.07;;;4.22;;
36573;SDS011;22578;42.668;23.232;2023-11-21T13:08:54;11.68;;;5.22;;
36573;SDS011;22578;42.668;23.232;2023-11-21T13:12:15;10.05;;;5.13;;
36573;SDS011;22578;42.668;23.232;2023-11-21T13:15:40;10.82;;;5.35;;
36573;SDS011;22578;42.668;23.232;2023-11-21T13:19:17;20.05;;;5.80;;
36573;SDS011;22578;42.668;23.232;2023-11-21T13:22:37;5.32;;;4.18;;
36573;SDS011;22578;42.668;23.232;2023-11-21T13:25:58;7.40;;;4.38;;
36573;SDS011;22578;42.668;23.232;2023-11-21T13:29:24;7.93;;;4.90;;
36573;SDS011;22578;42.668;23.232;2023-11-21T13:32:46;14.02;;;4.88;;
36573;SDS011;22578;42.668;23.232;2023-11-21T13:36:08;5.15;;;3.88;;
36573;SDS011;22578;42.668;23.232;2023-11-21T13:39:29;10.65;;;5.20;;
36573;SDS011;22578;42.668;23.232;2023-11-21T13:42:53;10.25;;;4.85;;
36573;SDS011;22578;42.668;23.232;2023-11-21T13:46:14;6.63;;;4.22;;
36573;SDS011;22578;42.668;23.232;2023-11-21T13:49:37;6.85;;;3.80;;
36573;SDS011;22578;42.668;23.232;2023-11-21T13:53:02;5.18;;;3.90;;
36573;SDS011;22578;42.668;23.232;2023-11-21T13:56:28;6.53;;;4.32;;
36573;SDS011;22578;42.668;23.232;2023-11-21T13:59:49;10.80;;;5.72;;
36573;SDS011;22578;42.668;23.232;2023-11-21T14:03:12;8.95;;;5.18;;
36573;SDS011;22578;42.668;23.232;2023-11-21T14:06:48;8.60;;;5.40;;
36573;SDS011;22578;42.668;23.232;2023-11-21T14:10:11;6.93;;;4.20;;
36573;SDS011;22578;42.668;23.232;2023-11-21T14:13:34;7.97;;;5.78;;
36573;SDS011;22578;42.668;23.232;2023-11-21T14:16:54;5.40;;;3.47;;
36573;SDS011;22578;42.668;23.232;2023-11-21T14:20:19;12.05;;;3.92;;
36573;SDS011;22578;42.668;23.232;2023-11-21T14:23:41;6.10;;;3.03;;
36573;SDS011;22578;42.668;23.232;2023-11-21T14:27:02;7.63;;;4.10;;
36573;SDS011;22578;42.668;23.232;2023-11-21T14:30:23;8.20;;;3.72;;
36573;SDS011;22578;42.668;23.232;2023-11-21T14:33:45;7.43;;;3.67;;
36573;SDS011;22578;42.668;23.232;2023-11-21T14:37:06;5.45;;;3.40;;
36573;SDS011;22578;42.668;23.232;2023-11-21T14:40:27;17.55;;;7.32;;
36573;SDS011;22578;42.668;23.232;2023-11-21T14:43:53;8.27;;;3.75;;
36573;SDS011;22578;42.668;23.232;2023-11-21T14:47:14;5.47;;;3.13;;
36573;SDS011;22578;42.668;23.232;2023-11-21T14:50:35;3.65;;;2.92;;
36573;SDS011;22578;42.668;23.232;2023-11-21T14:54:08;8.30;;;2.70;;
36573;SDS011;22578;42.668;23.232;2023-11-21T14:57:30;14.63;;;8.75;;
36573;SDS011;22578;42.668;23.232;2023-11-21T15:00:54;12.00;;;4.50;;
36573;SDS011;22578;42.668;23.232;2023-11-21T15:04:19;9.65;;;5.95;;
36573;SDS011;22578;42.668;23.232;2023-11-21T15:07:59;23.83;;;10.68;;
36573;SDS011;22578;42.668;23.232;2023-11-21T15:11:34;11.13;;;5.63;;
36573;SDS011;22578;42.668;23.232;2023-11-21T15:14:55;4.05;;;3.38;;
36573;SDS011;22578;42.668;23.232;2023-11-21T15:18:17;2.58;;;2.38;;
36573;SDS011;22578;42.668;23.232;2023-11-21T15:21:39;4.38;;;2.92;;
36573;SDS011;22578;42.668;23.232;2023-11-21T15:25:00;2.55;;;2.25;;
36573;SDS011;22578;42.668;23.232;2023-11-21T15:28:27;2.60;;;2.38;;
36573;SDS011;22578;42.668;23.232;2023-11-21T15:31:49;1.92;;;1.80;;
36573;SDS011;22578;42.668;23.232;2023-11-21T15:35:09;2.92;;;2.42;;
36573;SDS011;22578;42.668;23.232;2023-11-21T15:38:33;5.13;;;2.88;;
36573;SDS011;22578;42.668;23.232;2023-11-21T15:41:54;3.08;;;2.78;;
36573;SDS011;22578;42.668;23.232;2023-11-21T15:45:15;2.03;;;1.92;;
36573;SDS011;22578;42.668;23.232;2023-11-21T15:48:38;4.47;;;3.08;;
36573;SDS011;22578;42.668;23.232;2023-11-21T15:52:04;3.45;;;3.13;;
36573;SDS011;22578;42.668;23.232;2023-11-21T15:55:26;3.22;;;2.42;;
36573;SDS011;22578;42.668;23.232;2023-11-21T15:58:47;3.40;;;3.10;;
36573;SDS011;22578;42.668;23.232;2023-11-21T16:02:08;3.95;;;3.10;;
36573;SDS011;22578;42.668;23.232;2023-11-21T16:05:30;5.32;;;2.65;;
36573;SDS011;22578;42.668;23.232;2023-11-21T16:08:51;2.33;;;2.13;;
36573;SDS011;22578;42.668;23.232;2023-11-21T16:12:11;4.38;;;3.42;;
36573;SDS011;22578;42.668;23.232;2023-11-21T16:15:32;7.25;;;3.70;;
36573;SDS011;22578;42.668;23.232;2023-11-21T16:18:54;4.43;;;3.10;;
36573;SDS011;22578;42.668;23.232;2023-11-21T16:22:15;3.45;;;2.92;;
36573;SDS011;22578;42.668;23.232;2023-11-21T16:25:35;4.95;;;3.60;;
36573;SDS011;22578;42.668;23.232;2023-11-21T16:28:56;5.97;;;3.67;;
36573;SDS011;22578;42.668;23.232;2023-11-21T16:32:16;8.27;;;6.25;;
36573;SDS011;22578;42.668;23.232;2023-11-21T16:35:37;12.00;;;5.95;;
36573;SDS011;22578;42.668;23.232;2023-11-21T16:38:59;9.80;;;5.18;;
36573;SDS011;22578;42.668;23.232;2023-11-21T16:42:20;51.10;;;30.00;;
36573;SDS011;22578;42.668;23.232;2023-11-21T16:45:43;12.13;;;8.43;;
36573;SDS011;22578;42.668;23.232;2023-11-21T16:49:11;11.07;;;6.28;;
36573;SDS011;22578;42.668;23.232;2023-11-21T16:52:32;17.08;;;8.07;;
36573;SDS011;22578;42.668;23.232;2023-11-21T16:55:52;26.63;;;12.73;;
36573;SDS011;22578;42.668;23.232;2023-11-21T16:59:15;32.40;;;15.30;;
36573;SDS011;22578;42.668;23.232;2023-11-21T17:02:36;21.90;;;10.93;;
36573;SDS011;22578;42.668;23.232;2023-11-21T17:05:56;40.35;;;19.25;;
36573;SDS011;22578;42.668;23.232;2023-11-21T17:09:17;53.88;;;33.58;;
36573;SDS011;22578;42.668;23.232;2023-11-21T17:12:38;43.17;;;23.20;;
36573;SDS011;22578;42.668;23.232;2023-11-21T17:15:59;37.92;;;23.38;;
36573;SDS011;22578;42.668;23.232;2023-11-21T17:19:23;29.58;;;20.70;;
36573;SDS011;22578;42.668;23.232;2023-11-21T17:22:43;36.13;;;20.30;;
36573;SDS011;22578;42.668;23.232;2023-11-21T17:26:04;26.27;;;15.18;;
36573;SDS011;22578;42.668;23.232;2023-11-21T17:29:25;30.65;;;17.52;;
36573;SDS011;22578;42.668;23.232;2023-11-21T17:32:46;13.98;;;9.07;;
36573;SDS011;22578;42.668;23.232;2023-11-21T17:36:07;21.77;;;9.88;;
36573;SDS011;22578;42.668;23.232;2023-11-21T17:39:29;21.63;;;10.82;;
36573;SDS011;22578;42.668;23.232;2023-11-21T17:42:50;17.30;;;10.70;;
36573;SDS011;22578;42.668;23.232;2023-11-21T17:46:11;10.65;;;7.57;;
36573;SDS011;22578;42.668;23.232;2023-11-21T17:49:31;9.73;;;6.78;;
36573;SDS011;22578;42.668;23.232;2023-11-21T17:52:52;13.75;;;7.53;;
36573;SDS011;22578;42.668;23.232;2023-11-21T17:56:14;11.25;;;6.75;;
36573;SDS011;22578;42.668;23.232;2023-11-21T17:59:42;20.08;;;7.38;;
36573;SDS011;22578;42.668;23.232;2023-11-21T18:03:03;9.82;;;6.25;;
36573;SDS011;22578;42.668;23.232;2023-11-21T18:06:23;12.88;;;6.03;;
36573;SDS011;22578;42.668;23.232;2023-11-21T18:09:44;11.57;;;7.82;;
36573;SDS011;22578;42.668;23.232;2023-11-21T18:13:07;17.75;;;10.60;;
36573;SDS011;22578;42.668;23.232;2023-11-21T18:16:28;24.20;;;13.23;;
36573;SDS011;22578;42.668;23.232;2023-11-21T18:19:51;46.70;;;25.13;;
36573;SDS011;22578;42.668;23.232;2023-11-21T18:23:15;30.37;;;16.13;;
36573;SDS011;22578;42.668;23.232;2023-11-21T18:26:36;10.57;;;8.13;;
36573;SDS011;22578;42.668;23.232;2023-11-21T18:29:57;69.45;;;35.35;;
36573;SDS011;22578;42.668;23.232;2023-11-21T18:33:21;23.75;;;12.82;;
36573;SDS011;22578;42.668;23.232;2023-11-21T18:36:45;23.25;;;13.07;;
36573;SDS011;22578;42.668;23.232;2023-11-21T18:40:06;55.38;;;27.08;;
36573;SDS011;22578;42.668;23.232;2023-11-21T18:43:29;27.42;;;14.80;;
36573;SDS011;22578;42.668;23.232;2023-11-21T18:46:49;16.85;;;12.15;;
36573;SDS011;22578;42.668;23.232;2023-11-21T18:50:12;11.05;;;6.95;;
36573;SDS011;22578;42.668;23.232;2023-11-21T18:53:37;6.65;;;4.82;;
36573;SDS011;22578;42.668;23.232;2023-11-21T18:56:59;5.97;;;4.32;;
36573;SDS011;22578;42.668;23.232;2023-11-21T19:00:21;14.85;;;5.72;;
36573;SDS011;22578;42.668;23.232;2023-11-21T19:03:42;7.65;;;4.85;;
36573;SDS011;22578;42.668;23.232;2023-11-21T19:07:03;12.65;;;5.47;;
36573;SDS011;22578;42.668;23.232;2023-11-21T19:10:25;28.83;;;12.88;;
36573;SDS011;22578;42.668;23.232;2023-11-21T19:13:49;31.50;;;14.05;;
36573;SDS011;22578;42.668;23.232;2023-11-21T19:17:10;18.20;;;9.75;;
36573;SDS011;22578;42.668;23.232;2023-11-21T19:20:31;15.43;;;8.75;;
36573;SDS011;22578;42.668;23.232;2023-11-21T19:23:53;29.70;;;16.50;;
36573;SDS011;22578;42.668;23.232;2023-11-21T19:27:13;13.07;;;8.32;;
36573;SDS011;22578;42.668;23.232;2023-11-21T19:30:34;9.93;;;6.95;;
36573;SDS011;22578;42.668;23.232;2023-11-21T19:33:56;8.00;;;4.80;;
36573;SDS011;22578;42.668;23.232;2023-11-21T19:37:20;18.05;;;5.53;;
36573;SDS011;22578;42.668;23.232;2023-11-21T19:40:41;4.93;;;3.95;;
36573;SDS011;22578;42.668;23.232;2023-11-21T19:44:03;29.85;;;10.70;;
36573;SDS011;22578;42.668;23.232;2023-11-21T19:47:24;8.25;;;4.45;;
36573;SDS011;22578;42.668;23.232;2023-11-21T19:50:44;6.22;;;4.03;;
36573;SDS011;22578;42.668;23.232;2023-11-21T19:54:05;7.20;;;5.15;;
36573;SDS011;22578;42.668;23.232;2023-11-21T19:57:26;9.65;;;7.25;;
36573;SDS011;22578;42.668;23.232;2023-11-21T20:00:46;7.25;;;4.55;;
36573;SDS011;22578;42.668;23.232;2023-11-21T20:04:07;7.50;;;3.70;;
36573;SDS011;22578;42.668;23.232;2023-11-21T20:07:29;6.53;;;4.10;;
36573;SDS011;22578;42.668;23.232;2023-11-21T20:10:52;6.22;;;4.93;;
36573;SDS011;22578;42.668;23.232;2023-11-21T20:14:15;5.57;;;3.83;;
36573;SDS011;22578;42.668;23.232;2023-11-21T20:17:36;6.65;;;3.28;;
36573;SDS011;22578;42.668;23.232;2023-11-21T20:20:58;5.25;;;3.75;;